sensor_id;sensor_type;location;lat;lon;timestamp;P1;durP1;ratioP1;P2;durP2;ratioP2
739;SDS011;354;42.694;23.336;2023-06-19T00:01:07;11.18;;;10.40;;
739;SDS011;354;42.694;23.336;2023-06-19T00:03:34;11.17;;;10.30;;
739;SDS011;354;42.694;23.336;2023-06-19T00:06:04;11.27;;;10.48;;
739;SDS011;354;42.694;23.336;2023-06-19T00:08:50;10.88;;;9.85;;
739;SDS011;354;42.694;23.336;2023-06-19T00:11:33;10.93;;;9.93;;
739;SDS011;354;42.694;23.336;2023-06-19T00:14:26;10.07;;;9.37;;
739;SDS011;354;42.694;23.336;2023-06-19T00:17:01;10.90;;;9.93;;
739;SDS011;354;42.694;23.336;2023-06-19T00:19:47;11.60;;;10.80;;
739;SDS011;354;42.694;23.336;2023-06-19T00:22:14;9.97;;;9.17;;
739;SDS011;354;42.694;23.336;2023-06-19T00:25:00;9.93;;;9.23;;
739;SDS011;354;42.694;23.336;2023-06-19T00:27:41;10.57;;;9.77;;
739;SDS011;354;42.694;23.336;2023-06-19T00:30:06;10.13;;;9.50;;
739;SDS011;354;42.694;23.336;2023-06-19T00:32:36;10.03;;;9.37;;
739;SDS011;354;42.694;23.336;2023-06-19T00:35:11;10.90;;;9.77;;
739;SDS011;354;42.694;23.336;2023-06-19T00:37:37;10.20;;;9.43;;
739;SDS011;354;42.694;23.336;2023-06-19T00:40:29;10.60;;;9.83;;
739;SDS011;354;42.694;23.336;2023-06-19T00:43:04;10.00;;;9.30;;
739;SDS011;354;42.694;23.336;2023-06-19T00:45:30;10.40;;;9.60;;
739;SDS011;354;42.694;23.336;2023-06-19T00:48:10;10.97;;;10.07;;
739;SDS011;354;42.694;23.336;2023-06-19T00:50:37;11.33;;;10.27;;
739;SDS011;354;42.694;23.336;2023-06-19T00:53:03;11.67;;;10.97;;
739;SDS011;354;42.694;23.336;2023-06-19T00:55:29;10.90;;;10.20;;
739;SDS011;354;42.694;23.336;2023-06-19T00:57:57;11.17;;;10.17;;
739;SDS011;354;42.694;23.336;2023-06-19T01:00:23;10.43;;;9.57;;
739;SDS011;354;42.694;23.336;2023-06-19T01:03:09;10.67;;;9.93;;
739;SDS011;354;42.694;23.336;2023-06-19T01:05:54;11.27;;;10.27;;
739;SDS011;354;42.694;23.336;2023-06-19T01:11:04;11.33;;;10.53;;
739;SDS011;354;42.694;23.336;2023-06-19T01:13:50;10.97;;;10.07;;
739;SDS011;354;42.694;23.336;2023-06-19T01:16:21;10.90;;;10.10;;
739;SDS011;354;42.694;23.336;2023-06-19T01:19:26;10.77;;;9.87;;
739;SDS011;354;42.694;23.336;2023-06-19T01:22:09;12.03;;;11.23;;
739;SDS011;354;42.694;23.336;2023-06-19T01:24:54;11.23;;;10.33;;
739;SDS011;354;42.694;23.336;2023-06-19T01:27:36;9.70;;;9.00;;
739;SDS011;354;42.694;23.336;2023-06-19T01:30:23;10.80;;;9.90;;
739;SDS011;354;42.694;23.336;2023-06-19T01:33:20;11.33;;;10.33;;
739;SDS011;354;42.694;23.336;2023-06-19T01:36:01;11.53;;;10.73;;
739;SDS011;354;42.694;23.336;2023-06-19T01:38:29;11.33;;;10.30;;
739;SDS011;354;42.694;23.336;2023-06-19T01:40:58;11.67;;;10.83;;
739;SDS011;354;42.694;23.336;2023-06-19T01:43:24;12.57;;;11.77;;
739;SDS011;354;42.694;23.336;2023-06-19T01:46:06;11.63;;;10.73;;
739;SDS011;354;42.694;23.336;2023-06-19T01:48:39;10.83;;;10.03;;
739;SDS011;354;42.694;23.336;2023-06-19T01:51:24;12.67;;;11.77;;
739;SDS011;354;42.694;23.336;2023-06-19T01:54:24;12.43;;;11.43;;
739;SDS011;354;42.694;23.336;2023-06-19T01:56:51;11.67;;;10.80;;
739;SDS011;354;42.694;23.336;2023-06-19T01:59:17;12.27;;;11.17;;
739;SDS011;354;42.694;23.336;2023-06-19T02:02:02;11.97;;;11.07;;
739;SDS011;354;42.694;23.336;2023-06-19T02:04:30;12.17;;;11.07;;
739;SDS011;354;42.694;23.336;2023-06-19T02:07:15;12.27;;;11.17;;
739;SDS011;354;42.694;23.336;2023-06-19T02:09:41;11.33;;;10.63;;
739;SDS011;354;42.694;23.336;2023-06-19T02:12:07;16.60;;;15.00;;
739;SDS011;354;42.694;23.336;2023-06-19T02:14:53;13.20;;;11.93;;
739;SDS011;354;42.694;23.336;2023-06-19T02:17:38;12.07;;;10.97;;
739;SDS011;354;42.694;23.336;2023-06-19T02:20:23;13.13;;;12.03;;
739;SDS011;354;42.694;23.336;2023-06-19T02:22:57;11.23;;;10.40;;
739;SDS011;354;42.694;23.336;2023-06-19T02:25:26;12.90;;;12.00;;
739;SDS011;354;42.694;23.336;2023-06-19T02:27:52;12.40;;;11.50;;
739;SDS011;354;42.694;23.336;2023-06-19T02:30:17;13.23;;;12.20;;
739;SDS011;354;42.694;23.336;2023-06-19T02:32:46;13.50;;;12.27;;
739;SDS011;354;42.694;23.336;2023-06-19T02:35:32;13.60;;;12.60;;
739;SDS011;354;42.694;23.336;2023-06-19T02:37:58;13.40;;;12.30;;
739;SDS011;354;42.694;23.336;2023-06-19T02:40:46;11.87;;;10.97;;
739;SDS011;354;42.694;23.336;2023-06-19T02:43:31;11.47;;;10.73;;
739;SDS011;354;42.694;23.336;2023-06-19T02:46:32;11.87;;;10.97;;
739;SDS011;354;42.694;23.336;2023-06-19T02:48:58;13.70;;;12.50;;
739;SDS011;354;42.694;23.336;2023-06-19T02:51:26;13.57;;;12.57;;
739;SDS011;354;42.694;23.336;2023-06-19T02:54:27;12.67;;;11.67;;
739;SDS011;354;42.694;23.336;2023-06-19T02:56:53;13.90;;;12.80;;
739;SDS011;354;42.694;23.336;2023-06-19T02:59:39;14.47;;;13.37;;
739;SDS011;354;42.694;23.336;2023-06-19T03:02:24;14.17;;;12.97;;
739;SDS011;354;42.694;23.336;2023-06-19T03:05:11;12.33;;;11.47;;
739;SDS011;354;42.694;23.336;2023-06-19T03:07:42;13.83;;;12.63;;
739;SDS011;354;42.694;23.336;2023-06-19T03:10:27;13.93;;;12.80;;
739;SDS011;354;42.694;23.336;2023-06-19T03:13:08;14.17;;;13.07;;
739;SDS011;354;42.694;23.336;2023-06-19T03:15:33;14.57;;;13.13;;
739;SDS011;354;42.694;23.336;2023-06-19T03:18:14;14.73;;;13.33;;
739;SDS011;354;42.694;23.336;2023-06-19T03:20:55;15.17;;;13.87;;
739;SDS011;354;42.694;23.336;2023-06-19T03:23:20;16.83;;;15.10;;
739;SDS011;354;42.694;23.336;2023-06-19T03:25:46;14.87;;;13.47;;
739;SDS011;354;42.694;23.336;2023-06-19T03:28:39;15.10;;;13.90;;
739;SDS011;354;42.694;23.336;2023-06-19T03:31:24;16.03;;;14.37;;
739;SDS011;354;42.694;23.336;2023-06-19T03:33:50;14.87;;;13.47;;
739;SDS011;354;42.694;23.336;2023-06-19T03:36:20;15.03;;;13.67;;
739;SDS011;354;42.694;23.336;2023-06-19T03:38:53;15.00;;;13.43;;
739;SDS011;354;42.694;23.336;2023-06-19T03:41:20;15.37;;;13.97;;
739;SDS011;354;42.694;23.336;2023-06-19T03:44:05;15.17;;;13.63;;
739;SDS011;354;42.694;23.336;2023-06-19T03:46:31;16.77;;;13.23;;
739;SDS011;354;42.694;23.336;2023-06-19T03:49:17;14.83;;;13.50;;
739;SDS011;354;42.694;23.336;2023-06-19T03:51:58;15.87;;;14.23;;
739;SDS011;354;42.694;23.336;2023-06-19T03:54:51;17.33;;;13.83;;
739;SDS011;354;42.694;23.336;2023-06-19T03:57:25;15.23;;;13.80;;
739;SDS011;354;42.694;23.336;2023-06-19T03:59:58;30.33;;;27.13;;
739;SDS011;354;42.694;23.336;2023-06-19T04:02:25;18.53;;;14.90;;
739;SDS011;354;42.694;23.336;2023-06-19T04:05:13;14.60;;;13.30;;
739;SDS011;354;42.694;23.336;2023-06-19T04:07:57;16.17;;;14.53;;
739;SDS011;354;42.694;23.336;2023-06-19T04:10:27;19.30;;;17.33;;
739;SDS011;354;42.694;23.336;2023-06-19T04:13:12;16.30;;;14.80;;
739;SDS011;354;42.694;23.336;2023-06-19T04:15:38;14.43;;;13.23;;
739;SDS011;354;42.694;23.336;2023-06-19T04:18:27;14.00;;;12.47;;
739;SDS011;354;42.694;23.336;2023-06-19T04:20:57;12.93;;;11.70;;
739;SDS011;354;42.694;23.336;2023-06-19T04:24:02;14.17;;;12.83;;
739;SDS011;354;42.694;23.336;2023-06-19T04:26:48;13.67;;;12.27;;
739;SDS011;354;42.694;23.336;2023-06-19T04:29:15;12.70;;;11.60;;
739;SDS011;354;42.694;23.336;2023-06-19T04:32:01;14.23;;;11.57;;
739;SDS011;354;42.694;23.336;2023-06-19T04:34:38;14.47;;;12.97;;
739;SDS011;354;42.694;23.336;2023-06-19T04:37:04;11.70;;;10.50;;
739;SDS011;354;42.694;23.336;2023-06-19T04:39:30;12.18;;;11.13;;
739;SDS011;354;42.694;23.336;2023-06-19T04:42:16;11.43;;;10.33;;
739;SDS011;354;42.694;23.336;2023-06-19T04:45:04;12.25;;;11.15;;
739;SDS011;354;42.694;23.336;2023-06-19T04:47:50;11.35;;;10.35;;
739;SDS011;354;42.694;23.336;2023-06-19T04:50:17;10.73;;;9.80;;
739;SDS011;354;42.694;23.336;2023-06-19T04:53:24;10.15;;;9.45;;
739;SDS011;354;42.694;23.336;2023-06-19T04:55:57;10.55;;;9.48;;
739;SDS011;354;42.694;23.336;2023-06-19T04:58:23;10.88;;;9.57;;
739;SDS011;354;42.694;23.336;2023-06-19T05:00:48;11.20;;;10.05;;
739;SDS011;354;42.694;23.336;2023-06-19T05:03:19;14.13;;;10.50;;
739;SDS011;354;42.694;23.336;2023-06-19T05:06:08;9.35;;;8.68;;
739;SDS011;354;42.694;23.336;2023-06-19T05:08:38;8.50;;;7.72;;
739;SDS011;354;42.694;23.336;2023-06-19T05:11:43;8.90;;;8.02;;
739;SDS011;354;42.694;23.336;2023-06-19T05:14:12;9.75;;;8.98;;
739;SDS011;354;42.694;23.336;2023-06-19T05:17:05;9.75;;;8.98;;
739;SDS011;354;42.694;23.336;2023-06-19T05:19:37;8.50;;;7.90;;
739;SDS011;354;42.694;23.336;2023-06-19T05:22:26;10.18;;;8.73;;
739;SDS011;354;42.694;23.336;2023-06-19T05:25:11;13.10;;;12.02;;
739;SDS011;354;42.694;23.336;2023-06-19T05:27:37;10.05;;;9.10;;
739;SDS011;354;42.694;23.336;2023-06-19T05:30:22;10.20;;;9.20;;
739;SDS011;354;42.694;23.336;2023-06-19T05:32:49;9.55;;;8.75;;
739;SDS011;354;42.694;23.336;2023-06-19T05:35:16;10.23;;;9.52;;
739;SDS011;354;42.694;23.336;2023-06-19T05:38:05;9.60;;;8.90;;
739;SDS011;354;42.694;23.336;2023-06-19T05:40:54;8.48;;;7.72;;
739;SDS011;354;42.694;23.336;2023-06-19T05:43:20;9.98;;;9.20;;
739;SDS011;354;42.694;23.336;2023-06-19T05:46:05;10.32;;;9.50;;
739;SDS011;354;42.694;23.336;2023-06-19T05:48:32;9.30;;;8.60;;
739;SDS011;354;42.694;23.336;2023-06-19T05:51:38;9.43;;;8.82;;
739;SDS011;354;42.694;23.336;2023-06-19T05:54:04;10.20;;;9.35;;
739;SDS011;354;42.694;23.336;2023-06-19T05:56:30;10.52;;;9.82;;
739;SDS011;354;42.694;23.336;2023-06-19T05:59:16;9.68;;;9.02;;
739;SDS011;354;42.694;23.336;2023-06-19T06:02:02;11.55;;;10.65;;
739;SDS011;354;42.694;23.336;2023-06-19T06:04:30;12.57;;;9.25;;
739;SDS011;354;42.694;23.336;2023-06-19T06:07:17;16.45;;;15.23;;
739;SDS011;354;42.694;23.336;2023-06-19T06:10:10;11.45;;;10.63;;
739;SDS011;354;42.694;23.336;2023-06-19T06:13:15;11.80;;;10.93;;
739;SDS011;354;42.694;23.336;2023-06-19T06:15:41;9.80;;;9.00;;
739;SDS011;354;42.694;23.336;2023-06-19T06:18:07;9.50;;;8.93;;
739;SDS011;354;42.694;23.336;2023-06-19T06:20:54;9.98;;;9.13;;
739;SDS011;354;42.694;23.336;2023-06-19T06:23:43;10.60;;;9.70;;
739;SDS011;354;42.694;23.336;2023-06-19T06:26:49;10.45;;;9.70;;
739;SDS011;354;42.694;23.336;2023-06-19T06:29:54;9.13;;;8.63;;
739;SDS011;354;42.694;23.336;2023-06-19T06:32:28;9.75;;;9.05;;
739;SDS011;354;42.694;23.336;2023-06-19T06:34:57;9.90;;;9.20;;
739;SDS011;354;42.694;23.336;2023-06-19T06:37:47;9.73;;;9.02;;
739;SDS011;354;42.694;23.336;2023-06-19T06:40:52;9.65;;;9.15;;
739;SDS011;354;42.694;23.336;2023-06-19T06:43:40;9.38;;;8.77;;
739;SDS011;354;42.694;23.336;2023-06-19T06:46:09;9.60;;;9.00;;
739;SDS011;354;42.694;23.336;2023-06-19T06:48:59;9.50;;;8.80;;
739;SDS011;354;42.694;23.336;2023-06-19T06:52:05;9.27;;;8.68;;
739;SDS011;354;42.694;23.336;2023-06-19T06:55:10;10.82;;;9.90;;
739;SDS011;354;42.694;23.336;2023-06-19T06:58:18;9.27;;;8.68;;
739;SDS011;354;42.694;23.336;2023-06-19T07:01:24;13.00;;;11.98;;
739;SDS011;354;42.694;23.336;2023-06-19T07:04:31;10.23;;;9.63;;
739;SDS011;354;42.694;23.336;2023-06-19T07:07:11;9.70;;;8.90;;
739;SDS011;354;42.694;23.336;2023-06-19T07:09:39;10.00;;;9.30;;
739;SDS011;354;42.694;23.336;2023-06-19T07:12:45;9.35;;;8.75;;
739;SDS011;354;42.694;23.336;2023-06-19T07:15:15;9.77;;;8.93;;
739;SDS011;354;42.694;23.336;2023-06-19T07:18:20;10.07;;;9.45;;
739;SDS011;354;42.694;23.336;2023-06-19T07:21:30;9.18;;;8.30;;
739;SDS011;354;42.694;23.336;2023-06-19T07:24:35;9.35;;;8.75;;
739;SDS011;354;42.694;23.336;2023-06-19T07:27:46;9.60;;;8.90;;
739;SDS011;354;42.694;23.336;2023-06-19T07:30:54;9.10;;;8.45;;
739;SDS011;354;42.694;23.336;2023-06-19T07:34:00;9.55;;;8.85;;
739;SDS011;354;42.694;23.336;2023-06-19T07:37:07;9.60;;;8.80;;
739;SDS011;354;42.694;23.336;2023-06-19T07:40:13;10.85;;;9.75;;
739;SDS011;354;42.694;23.336;2023-06-19T07:43:20;9.55;;;8.95;;
739;SDS011;354;42.694;23.336;2023-06-19T07:46:26;10.38;;;9.57;;
739;SDS011;354;42.694;23.336;2023-06-19T07:49:31;12.00;;;11.00;;
739;SDS011;354;42.694;23.336;2023-06-19T07:52:24;9.55;;;8.73;;
739;SDS011;354;42.694;23.336;2023-06-19T07:55:30;9.05;;;8.35;;
739;SDS011;354;42.694;23.336;2023-06-19T07:58:17;8.95;;;8.45;;
739;SDS011;354;42.694;23.336;2023-06-19T08:01:24;8.10;;;7.40;;
739;SDS011;354;42.694;23.336;2023-06-19T08:04:29;8.52;;;7.93;;
739;SDS011;354;42.694;23.336;2023-06-19T08:07:15;16.90;;;15.57;;
739;SDS011;354;42.694;23.336;2023-06-19T08:10:21;10.45;;;9.55;;
739;SDS011;354;42.694;23.336;2023-06-19T08:13:26;8.65;;;8.13;;
739;SDS011;354;42.694;23.336;2023-06-19T08:16:31;9.70;;;9.00;;
739;SDS011;354;42.694;23.336;2023-06-19T08:19:37;8.98;;;8.27;;
739;SDS011;354;42.694;23.336;2023-06-19T08:22:44;15.65;;;14.02;;
739;SDS011;354;42.694;23.336;2023-06-19T08:25:54;8.73;;;8.00;;
739;SDS011;354;42.694;23.336;2023-06-19T08:28:59;9.10;;;8.40;;
739;SDS011;354;42.694;23.336;2023-06-19T08:32:04;9.50;;;8.70;;
739;SDS011;354;42.694;23.336;2023-06-19T08:34:59;11.05;;;10.15;;
739;SDS011;354;42.694;23.336;2023-06-19T08:38:04;8.45;;;7.95;;
739;SDS011;354;42.694;23.336;2023-06-19T08:41:00;9.40;;;8.45;;
739;SDS011;354;42.694;23.336;2023-06-19T08:43:27;8.05;;;7.45;;
739;SDS011;354;42.694;23.336;2023-06-19T08:48:38;8.15;;;7.60;;
739;SDS011;354;42.694;23.336;2023-06-19T08:51:04;9.98;;;9.38;;
739;SDS011;354;42.694;23.336;2023-06-19T08:53:32;11.75;;;10.73;;
739;SDS011;354;42.694;23.336;2023-06-19T08:55:58;9.38;;;8.60;;
739;SDS011;354;42.694;23.336;2023-06-19T08:58:24;8.63;;;8.05;;
739;SDS011;354;42.694;23.336;2023-06-19T09:00:50;8.60;;;7.93;;
739;SDS011;354;42.694;23.336;2023-06-19T09:03:19;8.68;;;7.80;;
739;SDS011;354;42.694;23.336;2023-06-19T09:05:45;8.48;;;7.78;;
739;SDS011;354;42.694;23.336;2023-06-19T09:08:14;8.65;;;8.05;;
739;SDS011;354;42.694;23.336;2023-06-19T09:10:40;9.50;;;8.77;;
739;SDS011;354;42.694;23.336;2023-06-19T09:13:07;8.25;;;7.65;;
739;SDS011;354;42.694;23.336;2023-06-19T09:15:34;8.77;;;8.07;;
739;SDS011;354;42.694;23.336;2023-06-19T09:18:06;8.30;;;7.70;;
739;SDS011;354;42.694;23.336;2023-06-19T09:20:40;8.70;;;7.93;;
739;SDS011;354;42.694;23.336;2023-06-19T09:23:13;8.57;;;7.97;;
739;SDS011;354;42.694;23.336;2023-06-19T09:25:52;10.00;;;8.10;;
739;SDS011;354;42.694;23.336;2023-06-19T09:30:56;8.30;;;7.47;;
739;SDS011;354;42.694;23.336;2023-06-19T09:33:32;8.57;;;7.90;;
739;SDS011;354;42.694;23.336;2023-06-19T09:35:59;8.35;;;7.85;;
739;SDS011;354;42.694;23.336;2023-06-19T09:38:25;8.02;;;7.57;;
739;SDS011;354;42.694;23.336;2023-06-19T09:40:59;9.07;;;8.43;;
739;SDS011;354;42.694;23.336;2023-06-19T09:43:36;8.35;;;7.75;;
739;SDS011;354;42.694;23.336;2023-06-19T09:46:10;9.07;;;8.38;;
739;SDS011;354;42.694;23.336;2023-06-19T09:48:40;9.63;;;8.88;;
739;SDS011;354;42.694;23.336;2023-06-19T09:51:26;8.77;;;8.25;;
739;SDS011;354;42.694;23.336;2023-06-19T09:53:53;8.75;;;8.15;;
739;SDS011;354;42.694;23.336;2023-06-19T09:56:19;8.05;;;7.60;;
739;SDS011;354;42.694;23.336;2023-06-19T09:58:46;8.15;;;7.32;;
739;SDS011;354;42.694;23.336;2023-06-19T10:01:16;9.38;;;8.68;;
739;SDS011;354;42.694;23.336;2023-06-19T10:03:44;12.95;;;11.95;;
739;SDS011;354;42.694;23.336;2023-06-19T10:06:13;8.90;;;8.10;;
739;SDS011;354;42.694;23.336;2023-06-19T10:08:39;7.80;;;7.30;;
739;SDS011;354;42.694;23.336;2023-06-19T10:11:05;8.02;;;7.43;;
739;SDS011;354;42.694;23.336;2023-06-19T10:13:35;8.88;;;7.95;;
739;SDS011;354;42.694;23.336;2023-06-19T10:16:20;9.02;;;8.20;;
739;SDS011;354;42.694;23.336;2023-06-19T10:18:46;8.15;;;7.55;;
739;SDS011;354;42.694;23.336;2023-06-19T10:21:21;8.40;;;7.70;;
739;SDS011;354;42.694;23.336;2023-06-19T10:23:57;9.57;;;8.77;;
739;SDS011;354;42.694;23.336;2023-06-19T10:26:32;8.93;;;8.32;;
739;SDS011;354;42.694;23.336;2023-06-19T10:28:58;7.85;;;7.35;;
739;SDS011;354;42.694;23.336;2023-06-19T10:31:24;9.55;;;8.45;;
739;SDS011;354;42.694;23.336;2023-06-19T10:33:50;8.88;;;8.27;;
739;SDS011;354;42.694;23.336;2023-06-19T10:36:17;8.77;;;8.02;;
739;SDS011;354;42.694;23.336;2023-06-19T10:38:42;8.00;;;7.50;;
739;SDS011;354;42.694;23.336;2023-06-19T10:41:16;7.75;;;7.18;;
739;SDS011;354;42.694;23.336;2023-06-19T10:43:41;7.90;;;7.40;;
739;SDS011;354;42.694;23.336;2023-06-19T10:46:07;7.68;;;7.03;;
739;SDS011;354;42.694;23.336;2023-06-19T10:48:33;9.07;;;8.18;;
739;SDS011;354;42.694;23.336;2023-06-19T10:50:59;8.05;;;7.55;;
739;SDS011;354;42.694;23.336;2023-06-19T10:53:29;8.27;;;7.57;;
739;SDS011;354;42.694;23.336;2023-06-19T10:55:58;7.18;;;6.75;;
739;SDS011;354;42.694;23.336;2023-06-19T10:58:25;7.93;;;7.35;;
739;SDS011;354;42.694;23.336;2023-06-19T11:00:50;10.45;;;9.63;;
739;SDS011;354;42.694;23.336;2023-06-19T11:03:15;9.05;;;8.40;;
739;SDS011;354;42.694;23.336;2023-06-19T11:05:56;8.60;;;7.90;;
739;SDS011;354;42.694;23.336;2023-06-19T11:08:21;8.25;;;7.75;;
739;SDS011;354;42.694;23.336;2023-06-19T11:10:47;7.43;;;6.93;;
739;SDS011;354;42.694;23.336;2023-06-19T11:13:14;8.45;;;7.65;;
739;SDS011;354;42.694;23.336;2023-06-19T11:15:40;8.05;;;7.45;;
739;SDS011;354;42.694;23.336;2023-06-19T11:18:06;10.13;;;9.23;;
739;SDS011;354;42.694;23.336;2023-06-19T11:20:42;8.50;;;7.75;;
739;SDS011;354;42.694;23.336;2023-06-19T11:23:10;8.40;;;7.68;;
739;SDS011;354;42.694;23.336;2023-06-19T11:25:37;8.93;;;7.57;;
739;SDS011;354;42.694;23.336;2023-06-19T11:28:10;9.45;;;8.60;;
739;SDS011;354;42.694;23.336;2023-06-19T11:30:36;8.00;;;7.50;;
739;SDS011;354;42.694;23.336;2023-06-19T11:33:02;8.38;;;7.80;;
739;SDS011;354;42.694;23.336;2023-06-19T11:35:37;8.27;;;7.63;;
739;SDS011;354;42.694;23.336;2023-06-19T11:38:04;7.93;;;7.35;;
739;SDS011;354;42.694;23.336;2023-06-19T11:40:38;9.38;;;8.50;;
739;SDS011;354;42.694;23.336;2023-06-19T11:43:04;8.60;;;8.00;;
739;SDS011;354;42.694;23.336;2023-06-19T11:45:29;8.38;;;7.78;;
739;SDS011;354;42.694;23.336;2023-06-19T11:47:55;9.70;;;8.32;;
739;SDS011;354;42.694;23.336;2023-06-19T11:50:26;9.52;;;8.82;;
739;SDS011;354;42.694;23.336;2023-06-19T11:52:51;8.52;;;7.93;;
739;SDS011;354;42.694;23.336;2023-06-19T11:55:17;8.60;;;8.00;;
739;SDS011;354;42.694;23.336;2023-06-19T11:57:42;9.18;;;8.38;;
739;SDS011;354;42.694;23.336;2023-06-19T12:00:15;8.63;;;7.97;;
739;SDS011;354;42.694;23.336;2023-06-19T12:02:43;8.70;;;8.00;;
739;SDS011;354;42.694;23.336;2023-06-19T12:05:08;14.50;;;8.13;;
739;SDS011;354;42.694;23.336;2023-06-19T12:07:35;9.80;;;8.95;;
739;SDS011;354;42.694;23.336;2023-06-19T12:10:01;8.40;;;7.80;;
739;SDS011;354;42.694;23.336;2023-06-19T12:12:28;8.18;;;7.68;;
739;SDS011;354;42.694;23.336;2023-06-19T12:14:54;8.88;;;8.18;;
739;SDS011;354;42.694;23.336;2023-06-19T12:17:19;8.43;;;7.82;;
739;SDS011;354;42.694;23.336;2023-06-19T12:19:45;8.50;;;7.90;;
739;SDS011;354;42.694;23.336;2023-06-19T12:22:10;8.18;;;7.57;;
739;SDS011;354;42.694;23.336;2023-06-19T12:24:36;9.25;;;8.48;;
739;SDS011;354;42.694;23.336;2023-06-19T12:27:02;11.80;;;9.07;;
739;SDS011;354;42.694;23.336;2023-06-19T12:29:28;9.05;;;8.18;;
739;SDS011;354;42.694;23.336;2023-06-19T12:31:59;9.27;;;8.48;;
739;SDS011;354;42.694;23.336;2023-06-19T12:34:25;9.00;;;8.30;;
739;SDS011;354;42.694;23.336;2023-06-19T12:36:52;9.85;;;8.88;;
739;SDS011;354;42.694;23.336;2023-06-19T12:39:19;9.85;;;8.10;;
739;SDS011;354;42.694;23.336;2023-06-19T12:41:44;9.70;;;8.25;;
739;SDS011;354;42.694;23.336;2023-06-19T12:44:12;8.45;;;7.85;;
739;SDS011;354;42.694;23.336;2023-06-19T12:46:37;9.35;;;8.70;;
739;SDS011;354;42.694;23.336;2023-06-19T12:49:03;9.15;;;8.63;;
739;SDS011;354;42.694;23.336;2023-06-19T12:51:28;8.73;;;7.82;;
739;SDS011;354;42.694;23.336;2023-06-19T12:53:55;8.18;;;7.68;;
739;SDS011;354;42.694;23.336;2023-06-19T12:56:22;9.10;;;8.40;;
739;SDS011;354;42.694;23.336;2023-06-19T12:58:47;9.45;;;8.57;;
739;SDS011;354;42.694;23.336;2023-06-19T13:01:13;9.25;;;8.48;;
739;SDS011;354;42.694;23.336;2023-06-19T13:03:39;9.20;;;8.52;;
739;SDS011;354;42.694;23.336;2023-06-19T13:06:05;8.15;;;7.60;;
739;SDS011;354;42.694;23.336;2023-06-19T13:08:30;8.50;;;7.80;;
739;SDS011;354;42.694;23.336;2023-06-19T13:10:55;8.32;;;7.63;;
739;SDS011;354;42.694;23.336;2023-06-19T13:13:22;8.15;;;7.18;;
739;SDS011;354;42.694;23.336;2023-06-19T13:15:47;8.95;;;8.00;;
739;SDS011;354;42.694;23.336;2023-06-19T13:18:13;8.57;;;7.80;;
739;SDS011;354;42.694;23.336;2023-06-19T13:20:39;15.60;;;14.10;;
739;SDS011;354;42.694;23.336;2023-06-19T13:23:05;13.18;;;11.95;;
739;SDS011;354;42.694;23.336;2023-06-19T13:25:31;8.80;;;8.10;;
739;SDS011;354;42.694;23.336;2023-06-19T13:27:57;8.30;;;7.70;;
739;SDS011;354;42.694;23.336;2023-06-19T13:30:22;9.50;;;7.93;;
739;SDS011;354;42.694;23.336;2023-06-19T13:32:48;9.98;;;7.82;;
739;SDS011;354;42.694;23.336;2023-06-19T13:35:13;8.50;;;7.80;;
739;SDS011;354;42.694;23.336;2023-06-19T13:37:39;8.20;;;7.43;;
739;SDS011;354;42.694;23.336;2023-06-19T13:40:05;8.45;;;7.88;;
739;SDS011;354;42.694;23.336;2023-06-19T13:42:31;7.47;;;6.93;;
739;SDS011;354;42.694;23.336;2023-06-19T13:44:56;8.25;;;7.50;;
739;SDS011;354;42.694;23.336;2023-06-19T13:47:22;8.05;;;7.40;;
739;SDS011;354;42.694;23.336;2023-06-19T13:49:50;8.32;;;7.55;;
739;SDS011;354;42.694;23.336;2023-06-19T13:52:16;7.57;;;6.88;;
739;SDS011;354;42.694;23.336;2023-06-19T13:54:43;8.82;;;8.05;;
739;SDS011;354;42.694;23.336;2023-06-19T13:57:08;8.32;;;7.63;;
739;SDS011;354;42.694;23.336;2023-06-19T13:59:33;8.45;;;7.80;;
739;SDS011;354;42.694;23.336;2023-06-19T14:01:59;7.43;;;6.88;;
739;SDS011;354;42.694;23.336;2023-06-19T14:04:24;9.35;;;8.57;;
739;SDS011;354;42.694;23.336;2023-06-19T14:06:49;8.10;;;7.20;;
739;SDS011;354;42.694;23.336;2023-06-19T14:09:14;9.88;;;9.05;;
739;SDS011;354;42.694;23.336;2023-06-19T14:11:40;8.77;;;7.57;;
739;SDS011;354;42.694;23.336;2023-06-19T14:14:05;8.45;;;7.85;;
739;SDS011;354;42.694;23.336;2023-06-19T14:16:30;8.50;;;8.00;;
739;SDS011;354;42.694;23.336;2023-06-19T14:18:56;7.85;;;7.35;;
739;SDS011;354;42.694;23.336;2023-06-19T14:21:21;7.80;;;7.30;;
739;SDS011;354;42.694;23.336;2023-06-19T14:23:48;7.82;;;7.32;;
739;SDS011;354;42.694;23.336;2023-06-19T14:26:17;8.30;;;7.80;;
739;SDS011;354;42.694;23.336;2023-06-19T14:28:43;9.43;;;8.70;;
739;SDS011;354;42.694;23.336;2023-06-19T14:31:08;7.70;;;7.20;;
739;SDS011;354;42.694;23.336;2023-06-19T14:33:33;7.90;;;7.30;;
739;SDS011;354;42.694;23.336;2023-06-19T14:36:01;8.57;;;7.95;;
739;SDS011;354;42.694;23.336;2023-06-19T14:38:27;8.48;;;7.72;;
739;SDS011;354;42.694;23.336;2023-06-19T14:40:56;8.18;;;7.68;;
739;SDS011;354;42.694;23.336;2023-06-19T14:43:23;8.05;;;7.35;;
739;SDS011;354;42.694;23.336;2023-06-19T14:45:49;8.90;;;8.15;;
739;SDS011;354;42.694;23.336;2023-06-19T14:48:14;8.40;;;7.55;;
739;SDS011;354;42.694;23.336;2023-06-19T14:50:40;8.13;;;7.63;;
739;SDS011;354;42.694;23.336;2023-06-19T14:53:48;8.07;;;7.47;;
739;SDS011;354;42.694;23.336;2023-06-19T14:56:54;9.05;;;8.27;;
739;SDS011;354;42.694;23.336;2023-06-19T14:59:47;8.20;;;7.60;;
739;SDS011;354;42.694;23.336;2023-06-19T15:03:02;8.60;;;7.93;;
739;SDS011;354;42.694;23.336;2023-06-19T15:06:13;7.65;;;7.15;;
739;SDS011;354;42.694;23.336;2023-06-19T15:09:18;7.85;;;7.15;;
739;SDS011;354;42.694;23.336;2023-06-19T15:12:37;9.90;;;9.00;;
739;SDS011;354;42.694;23.336;2023-06-19T15:15:44;8.48;;;7.80;;
739;SDS011;354;42.694;23.336;2023-06-19T15:18:49;9.48;;;7.70;;
739;SDS011;354;42.694;23.336;2023-06-19T15:21:54;7.68;;;7.18;;
739;SDS011;354;42.694;23.336;2023-06-19T15:24:47;12.88;;;11.68;;
739;SDS011;354;42.694;23.336;2023-06-19T15:27:32;9.35;;;8.63;;
739;SDS011;354;42.694;23.336;2023-06-19T15:30:41;8.32;;;7.70;;
739;SDS011;354;42.694;23.336;2023-06-19T15:33:47;9.40;;;8.50;;
739;SDS011;354;42.694;23.336;2023-06-19T15:36:52;7.60;;;7.10;;
739;SDS011;354;42.694;23.336;2023-06-19T15:39:39;9.07;;;8.38;;
739;SDS011;354;42.694;23.336;2023-06-19T15:42:44;8.52;;;7.88;;
739;SDS011;354;42.694;23.336;2023-06-19T15:45:49;9.05;;;8.15;;
739;SDS011;354;42.694;23.336;2023-06-19T15:48:54;8.70;;;8.00;;
739;SDS011;354;42.694;23.336;2023-06-19T15:52:04;9.65;;;8.85;;
739;SDS011;354;42.694;23.336;2023-06-19T15:54:43;9.40;;;8.60;;
739;SDS011;354;42.694;23.336;2023-06-19T15:57:30;9.18;;;8.48;;
739;SDS011;354;42.694;23.336;2023-06-19T16:00:35;8.90;;;8.25;;
739;SDS011;354;42.694;23.336;2023-06-19T16:03:40;9.32;;;8.70;;
739;SDS011;354;42.694;23.336;2023-06-19T16:06:26;9.50;;;8.70;;
739;SDS011;354;42.694;23.336;2023-06-19T16:09:31;9.27;;;8.30;;
739;SDS011;354;42.694;23.336;2023-06-19T16:12:36;9.93;;;9.13;;
739;SDS011;354;42.694;23.336;2023-06-19T16:15:25;9.25;;;8.35;;
739;SDS011;354;42.694;23.336;2023-06-19T16:17:56;11.32;;;10.23;;
739;SDS011;354;42.694;23.336;2023-06-19T16:20:46;9.93;;;9.13;;
739;SDS011;354;42.694;23.336;2023-06-19T16:23:20;8.88;;;8.25;;
739;SDS011;354;42.694;23.336;2023-06-19T16:26:09;9.73;;;8.80;;
739;SDS011;354;42.694;23.336;2023-06-19T16:29:14;9.98;;;9.27;;
739;SDS011;354;42.694;23.336;2023-06-19T16:32:21;10.10;;;9.30;;
739;SDS011;354;42.694;23.336;2023-06-19T16:35:06;9.82;;;8.90;;
739;SDS011;354;42.694;23.336;2023-06-19T16:37:52;9.88;;;8.60;;